Terminal Aerodrome Forecast
Issued by NWS

Home | Current Version | Previous Version | Text Only | Print | Product List | Glossary On
Versions: 1 2 3 4 5 6 7 8 9 10 11 12 13 14 15 16 17 18 19 20
853
FTUS46 KLOX 260007 CCA
TAFSBA
TAF COR
KSBA 260007Z 2600/2624 27012G20KT P6SM SCT040 SCT050
     FM260300 33008KT P6SM FEW040 SCT150
     FM260900 VRB03KT P6SM SCT150
     FM261700 17006KT P6SM SCT070 BKN150
     FM262100 25010KT P6SM SCT035 BKN070=

USA.gov is the U.S. government's official web portal to all federal, state and local government web resources and services.